sensor_id;sensor_type;location;lat;lon;timestamp;temperature;humidity
9179;DHT22;71287;48.414;11.478;2023-10-09T00:01:26;13.50;99.90
9179;DHT22;71287;48.414;11.478;2023-10-09T00:03:53;13.50;99.90
9179;DHT22;71287;48.414;11.478;2023-10-09T00:06:22;13.50;99.90
9179;DHT22;71287;48.414;11.478;2023-10-09T00:08:57;13.40;99.90
9179;DHT22;71287;48.414;11.478;2023-10-09T00:11:37;13.40;99.90
9179;DHT22;71287;48.414;11.478;2023-10-09T00:14:07;13.40;99.90
9179;DHT22;71287;48.414;11.478;2023-10-09T00:16:34;13.40;99.90
9179;DHT22;71287;48.414;11.478;2023-10-09T00:19:03;13.40;99.90
9179;DHT22;71287;48.414;11.478;2023-10-09T00:21:41;13.40;99.90
9179;DHT22;71287;48.414;11.478;2023-10-09T00:24:08;13.40;99.90
9179;DHT22;71287;48.414;11.478;2023-10-09T00:26:40;13.40;99.90
9179;DHT22;71287;48.414;11.478;2023-10-09T00:29:10;13.40;99.90
9179;DHT22;71287;48.414;11.478;2023-10-09T00:31:41;13.40;99.90
9179;DHT22;71287;48.414;11.478;2023-10-09T00:34:15;13.40;99.90
9179;DHT22;71287;48.414;11.478;2023-10-09T00:36:46;13.40;99.90
9179;DHT22;71287;48.414;11.478;2023-10-09T00:39:20;13.40;99.90
9179;DHT22;71287;48.414;11.478;2023-10-09T00:42:07;13.40;99.90
9179;DHT22;71287;48.414;11.478;2023-10-09T00:44:37;13.40;99.90
9179;DHT22;71287;48.414;11.478;2023-10-09T00:47:06;13.40;99.90
9179;DHT22;71287;48.414;11.478;2023-10-09T00:49:47;13.40;99.90
9179;DHT22;71287;48.414;11.478;2023-10-09T00:52:16;13.40;99.90
9179;DHT22;71287;48.414;11.478;2023-10-09T00:54:53;13.40;99.90
9179;DHT22;71287;48.414;11.478;2023-10-09T00:57:28;13.40;99.90
9179;DHT22;71287;48.414;11.478;2023-10-09T00:59:59;13.30;99.90
9179;DHT22;71287;48.414;11.478;2023-10-09T01:02:27;13.30;99.90
9179;DHT22;71287;48.414;11.478;2023-10-09T01:05:03;13.30;99.90
9179;DHT22;71287;48.414;11.478;2023-10-09T01:07:47;13.30;99.90
9179;DHT22;71287;48.414;11.478;2023-10-09T01:10:14;13.30;99.90
9179;DHT22;71287;48.414;11.478;2023-10-09T01:12:43;13.30;99.90
9179;DHT22;71287;48.414;11.478;2023-10-09T01:15:13;13.30;99.90
9179;DHT22;71287;48.414;11.478;2023-10-09T01:18:02;13.30;99.90
9179;DHT22;71287;48.414;11.478;2023-10-09T01:20:30;13.20;99.90
9179;DHT22;71287;48.414;11.478;2023-10-09T01:23:09;13.20;99.90
9179;DHT22;71287;48.414;11.478;2023-10-09T01:25:36;13.20;99.90
9179;DHT22;71287;48.414;11.478;2023-10-09T01:28:09;13.20;99.90
9179;DHT22;71287;48.414;11.478;2023-10-09T01:30:36;13.10;99.90
9179;DHT22;71287;48.414;11.478;2023-10-09T01:33:07;13.10;99.90
9179;DHT22;71287;48.414;11.478;2023-10-09T01:35:52;13.10;99.90
9179;DHT22;71287;48.414;11.478;2023-10-09T01:38:25;13.10;99.90
9179;DHT22;71287;48.414;11.478;2023-10-09T01:41:07;13.10;99.90
9179;DHT22;71287;48.414;11.478;2023-10-09T01:43:34;13.10;99.90
9179;DHT22;71287;48.414;11.478;2023-10-09T01:46:01;13.00;99.90
9179;DHT22;71287;48.414;11.478;2023-10-09T01:48:30;13.10;99.90
9179;DHT22;71287;48.414;11.478;2023-10-09T01:51:03;13.00;99.90
9179;DHT22;71287;48.414;11.478;2023-10-09T01:53:33;13.00;99.90
9179;DHT22;71287;48.414;11.478;2023-10-09T01:56:10;13.00;99.90
9179;DHT22;71287;48.414;11.478;2023-10-09T01:58:41;13.00;99.90
9179;DHT22;71287;48.414;11.478;2023-10-09T02:01:10;13.00;99.90
9179;DHT22;71287;48.414;11.478;2023-10-09T02:03:38;13.00;99.90
9179;DHT22;71287;48.414;11.478;2023-10-09T02:06:07;13.10;99.90
9179;DHT22;71287;48.414;11.478;2023-10-09T02:08:52;13.10;99.90
9179;DHT22;71287;48.414;11.478;2023-10-09T02:11:19;13.10;99.90
9179;DHT22;71287;48.414;11.478;2023-10-09T02:13:50;13.10;99.90
9179;DHT22;71287;48.414;11.478;2023-10-09T02:16:22;13.10;99.90
9179;DHT22;71287;48.414;11.478;2023-10-09T02:18:54;13.20;99.90
9179;DHT22;71287;48.414;11.478;2023-10-09T02:21:24;13.20;99.90
9179;DHT22;71287;48.414;11.478;2023-10-09T02:24:01;13.20;99.90
9179;DHT22;71287;48.414;11.478;2023-10-09T02:26:31;13.20;99.90
9179;DHT22;71287;48.414;11.478;2023-10-09T02:29:19;13.30;99.90
9179;DHT22;71287;48.414;11.478;2023-10-09T02:31:49;13.20;99.90
9179;DHT22;71287;48.414;11.478;2023-10-09T02:34:18;13.10;99.90
9179;DHT22;71287;48.414;11.478;2023-10-09T02:36:48;13.10;99.90
9179;DHT22;71287;48.414;11.478;2023-10-09T02:39:24;13.00;99.90
9179;DHT22;71287;48.414;11.478;2023-10-09T02:41:52;13.00;99.90
9179;DHT22;71287;48.414;11.478;2023-10-09T02:44:25;13.00;99.90
9179;DHT22;71287;48.414;11.478;2023-10-09T02:46:55;13.00;99.90
9179;DHT22;71287;48.414;11.478;2023-10-09T02:49:23;13.00;99.90
9179;DHT22;71287;48.414;11.478;2023-10-09T02:51:51;13.00;99.90
9179;DHT22;71287;48.414;11.478;2023-10-09T02:54:19;13.00;99.90
9179;DHT22;71287;48.414;11.478;2023-10-09T02:56:54;12.90;99.90
9179;DHT22;71287;48.414;11.478;2023-10-09T02:59:31;12.90;99.90
9179;DHT22;71287;48.414;11.478;2023-10-09T03:01:58;12.80;99.90
9179;DHT22;71287;48.414;11.478;2023-10-09T03:04:25;12.80;99.90
9179;DHT22;71287;48.414;11.478;2023-10-09T03:06:56;12.80;99.90
9179;DHT22;71287;48.414;11.478;2023-10-09T03:09:24;12.80;99.90
9179;DHT22;71287;48.414;11.478;2023-10-09T03:11:55;12.80;99.90
9179;DHT22;71287;48.414;11.478;2023-10-09T03:14:28;12.80;99.90
9179;DHT22;71287;48.414;11.478;2023-10-09T03:16:56;12.80;99.90
9179;DHT22;71287;48.414;11.478;2023-10-09T03:19:25;12.80;99.90
9179;DHT22;71287;48.414;11.478;2023-10-09T03:21:53;12.80;99.90
9179;DHT22;71287;48.414;11.478;2023-10-09T03:24:22;12.80;99.90
9179;DHT22;71287;48.414;11.478;2023-10-09T03:26:49;12.70;99.90
9179;DHT22;71287;48.414;11.478;2023-10-09T03:29:22;12.70;99.90
9179;DHT22;71287;48.414;11.478;2023-10-09T03:31:49;12.70;99.90
9179;DHT22;71287;48.414;11.478;2023-10-09T03:34:17;12.60;99.90
9179;DHT22;71287;48.414;11.478;2023-10-09T03:36:44;12.60;99.90
9179;DHT22;71287;48.414;11.478;2023-10-09T03:39:11;12.60;99.90
9179;DHT22;71287;48.414;11.478;2023-10-09T03:41:50;12.60;99.90
9179;DHT22;71287;48.414;11.478;2023-10-09T03:44:17;12.60;99.90
9179;DHT22;71287;48.414;11.478;2023-10-09T03:46:45;12.60;99.90
9179;DHT22;71287;48.414;11.478;2023-10-09T03:49:12;12.60;99.90
9179;DHT22;71287;48.414;11.478;2023-10-09T03:51:48;12.60;99.90
9179;DHT22;71287;48.414;11.478;2023-10-09T03:54:15;12.60;99.90
9179;DHT22;71287;48.414;11.478;2023-10-09T03:56:45;12.60;99.90
9179;DHT22;71287;48.414;11.478;2023-10-09T03:59:15;12.70;99.90
9179;DHT22;71287;48.414;11.478;2023-10-09T04:01:42;12.70;99.90
9179;DHT22;71287;48.414;11.478;2023-10-09T04:04:11;12.70;99.90
9179;DHT22;71287;48.414;11.478;2023-10-09T04:06:40;12.60;99.90
9179;DHT22;71287;48.414;11.478;2023-10-09T04:09:08;12.60;99.90
9179;DHT22;71287;48.414;11.478;2023-10-09T04:11:54;12.60;99.90
9179;DHT22;71287;48.414;11.478;2023-10-09T04:14:44;12.60;99.90
9179;DHT22;71287;48.414;11.478;2023-10-09T04:17:16;12.60;99.90
9179;DHT22;71287;48.414;11.478;2023-10-09T04:19:58;12.50;99.90
9179;DHT22;71287;48.414;11.478;2023-10-09T04:22:40;12.50;99.90
9179;DHT22;71287;48.414;11.478;2023-10-09T04:25:15;12.50;99.90
9179;DHT22;71287;48.414;11.478;2023-10-09T04:27:51;12.50;99.90
9179;DHT22;71287;48.414;11.478;2023-10-09T04:30:18;12.50;99.90
9179;DHT22;71287;48.414;11.478;2023-10-09T04:32:45;12.50;99.90
9179;DHT22;71287;48.414;11.478;2023-10-09T04:35:13;12.50;99.90
9179;DHT22;71287;48.414;11.478;2023-10-09T04:37:49;12.50;99.90
9179;DHT22;71287;48.414;11.478;2023-10-09T04:40:25;12.50;99.90
9179;DHT22;71287;48.414;11.478;2023-10-09T04:43:21;12.50;99.90
9179;DHT22;71287;48.414;11.478;2023-10-09T04:45:47;12.50;99.90
9179;DHT22;71287;48.414;11.478;2023-10-09T04:48:31;12.50;99.90
9179;DHT22;71287;48.414;11.478;2023-10-09T04:51:04;12.50;99.90
9179;DHT22;71287;48.414;11.478;2023-10-09T04:53:46;12.50;99.90
9179;DHT22;71287;48.414;11.478;2023-10-09T04:56:20;12.50;99.90
9179;DHT22;71287;48.414;11.478;2023-10-09T04:58:51;12.50;99.90
9179;DHT22;71287;48.414;11.478;2023-10-09T05:01:29;12.50;99.90
9179;DHT22;71287;48.414;11.478;2023-10-09T05:04:04;12.50;99.90
9179;DHT22;71287;48.414;11.478;2023-10-09T05:06:40;12.50;99.90
9179;DHT22;71287;48.414;11.478;2023-10-09T05:09:21;12.50;99.90
9179;DHT22;71287;48.414;11.478;2023-10-09T05:11:47;12.50;99.90
9179;DHT22;71287;48.414;11.478;2023-10-09T05:14:22;12.50;99.90
9179;DHT22;71287;48.414;11.478;2023-10-09T05:17:02;12.50;99.90
9179;DHT22;71287;48.414;11.478;2023-10-09T05:19:29;12.50;99.90
9179;DHT22;71287;48.414;11.478;2023-10-09T05:22:08;12.50;99.90
9179;DHT22;71287;48.414;11.478;2023-10-09T05:24:34;12.40;99.90
9179;DHT22;71287;48.414;11.478;2023-10-09T05:27:09;12.50;99.90
9179;DHT22;71287;48.414;11.478;2023-10-09T05:29:44;12.50;99.90
9179;DHT22;71287;48.414;11.478;2023-10-09T05:32:38;12.50;99.90
9179;DHT22;71287;48.414;11.478;2023-10-09T05:35:14;12.50;99.90
9179;DHT22;71287;48.414;11.478;2023-10-09T05:37:41;12.60;99.90
9179;DHT22;71287;48.414;11.478;2023-10-09T05:40:12;12.70;99.90
9179;DHT22;71287;48.414;11.478;2023-10-09T05:42:56;12.70;99.90
9179;DHT22;71287;48.414;11.478;2023-10-09T05:45:32;12.70;99.90
9179;DHT22;71287;48.414;11.478;2023-10-09T05:48:16;12.80;99.90
9179;DHT22;71287;48.414;11.478;2023-10-09T05:51:00;12.80;99.90
9179;DHT22;71287;48.414;11.478;2023-10-09T05:53:59;12.80;99.90
9179;DHT22;71287;48.414;11.478;2023-10-09T05:57:09;12.90;99.90
9179;DHT22;71287;48.414;11.478;2023-10-09T05:59:49;13.10;99.90
9179;DHT22;71287;48.414;11.478;2023-10-09T06:02:35;13.20;99.90
9179;DHT22;71287;48.414;11.478;2023-10-09T06:05:19;13.30;99.90
9179;DHT22;71287;48.414;11.478;2023-10-09T06:08:00;13.40;99.90
9179;DHT22;71287;48.414;11.478;2023-10-09T06:10:34;13.60;99.90
9179;DHT22;71287;48.414;11.478;2023-10-09T06:13:08;13.70;99.90
9179;DHT22;71287;48.414;11.478;2023-10-09T06:15:55;14.00;99.90
9179;DHT22;71287;48.414;11.478;2023-10-09T06:18:58;14.30;99.90
9179;DHT22;71287;48.414;11.478;2023-10-09T06:21:34;14.70;99.90
9179;DHT22;71287;48.414;11.478;2023-10-09T06:24:27;15.10;99.90
9179;DHT22;71287;48.414;11.478;2023-10-09T06:26:59;15.50;99.90
9179;DHT22;71287;48.414;11.478;2023-10-09T06:30:09;15.90;99.90
9179;DHT22;71287;48.414;11.478;2023-10-09T06:32:50;16.60;99.90
9179;DHT22;71287;48.414;11.478;2023-10-09T06:35:18;17.10;99.90
9179;DHT22;71287;48.414;11.478;2023-10-09T06:37:48;17.60;99.90
9179;DHT22;71287;48.414;11.478;2023-10-09T06:40:33;18.10;99.90
9179;DHT22;71287;48.414;11.478;2023-10-09T06:43:18;18.70;99.90
9179;DHT22;71287;48.414;11.478;2023-10-09T06:45:53;19.20;99.90
9179;DHT22;71287;48.414;11.478;2023-10-09T06:48:21;19.70;99.90
9179;DHT22;71287;48.414;11.478;2023-10-09T06:51:08;20.20;99.90
9179;DHT22;71287;48.414;11.478;2023-10-09T06:53:41;20.60;99.90
9179;DHT22;71287;48.414;11.478;2023-10-09T06:56:30;20.90;99.90
9179;DHT22;71287;48.414;11.478;2023-10-09T06:59:16;21.10;99.90
9179;DHT22;71287;48.414;11.478;2023-10-09T07:01:47;21.00;99.90
9179;DHT22;71287;48.414;11.478;2023-10-09T07:04:34;20.90;99.70
9179;DHT22;71287;48.414;11.478;2023-10-09T07:07:13;20.70;99.40
9179;DHT22;71287;48.414;11.478;2023-10-09T07:09:44;20.60;98.80
9179;DHT22;71287;48.414;11.478;2023-10-09T07:12:29;20.80;98.50
9179;DHT22;71287;48.414;11.478;2023-10-09T07:14:59;21.10;97.90
9179;DHT22;71287;48.414;11.478;2023-10-09T07:17:26;21.80;97.30
9179;DHT22;71287;48.414;11.478;2023-10-09T07:20:10;22.80;96.30
9179;DHT22;71287;48.414;11.478;2023-10-09T07:22:42;24.00;94.40
9179;DHT22;71287;48.414;11.478;2023-10-09T07:25:28;24.90;92.90
9179;DHT22;71287;48.414;11.478;2023-10-09T07:28:15;24.50;92.00
9179;DHT22;71287;48.414;11.478;2023-10-09T07:31:08;23.70;91.90
9179;DHT22;71287;48.414;11.478;2023-10-09T07:33:50;23.00;92.00
9179;DHT22;71287;48.414;11.478;2023-10-09T07:36:47;22.40;92.10
9179;DHT22;71287;48.414;11.478;2023-10-09T07:39:16;21.90;92.40
9179;DHT22;71287;48.414;11.478;2023-10-09T07:41:43;21.50;92.30
9179;DHT22;71287;48.414;11.478;2023-10-09T07:44:27;21.30;93.00
9179;DHT22;71287;48.414;11.478;2023-10-09T07:47:04;21.20;92.70
9179;DHT22;71287;48.414;11.478;2023-10-09T07:49:56;21.20;92.50
9179;DHT22;71287;48.414;11.478;2023-10-09T07:52:24;21.30;92.40
9179;DHT22;71287;48.414;11.478;2023-10-09T07:54:53;21.20;92.30
9179;DHT22;71287;48.414;11.478;2023-10-09T07:57:27;21.10;92.20
9179;DHT22;71287;48.414;11.478;2023-10-09T07:59:54;21.10;92.30
9179;DHT22;71287;48.414;11.478;2023-10-09T08:02:28;21.00;92.20
9179;DHT22;71287;48.414;11.478;2023-10-09T08:04:59;20.80;92.20
9179;DHT22;71287;48.414;11.478;2023-10-09T08:07:29;20.70;92.30
9179;DHT22;71287;48.414;11.478;2023-10-09T08:10:02;20.60;92.20
9179;DHT22;71287;48.414;11.478;2023-10-09T08:12:46;20.60;92.30
9179;DHT22;71287;48.414;11.478;2023-10-09T08:15:45;20.60;92.30
9179;DHT22;71287;48.414;11.478;2023-10-09T08:18:17;20.60;92.40
9179;DHT22;71287;48.414;11.478;2023-10-09T08:20:53;20.60;92.50
9179;DHT22;71287;48.414;11.478;2023-10-09T08:23:34;20.60;92.70
9179;DHT22;71287;48.414;11.478;2023-10-09T08:26:15;20.60;92.60
9179;DHT22;71287;48.414;11.478;2023-10-09T08:28:55;20.60;92.60
9179;DHT22;71287;48.414;11.478;2023-10-09T08:31:41;20.70;92.70
9179;DHT22;71287;48.414;11.478;2023-10-09T08:34:22;20.90;92.80
9179;DHT22;71287;48.414;11.478;2023-10-09T08:36:51;21.00;92.50
9179;DHT22;71287;48.414;11.478;2023-10-09T08:39:19;21.10;92.30
9179;DHT22;71287;48.414;11.478;2023-10-09T08:41:54;21.20;92.10
9179;DHT22;71287;48.414;11.478;2023-10-09T08:44:25;21.30;92.20
9179;DHT22;71287;48.414;11.478;2023-10-09T08:46:54;21.30;92.20
9179;DHT22;71287;48.414;11.478;2023-10-09T08:49:21;21.30;91.70
9179;DHT22;71287;48.414;11.478;2023-10-09T08:51:48;21.20;91.80
9179;DHT22;71287;48.414;11.478;2023-10-09T08:54:14;21.10;91.90
9179;DHT22;71287;48.414;11.478;2023-10-09T08:56:41;21.00;92.00
9179;DHT22;71287;48.414;11.478;2023-10-09T08:59:16;21.00;91.90
9179;DHT22;71287;48.414;11.478;2023-10-09T09:01:45;20.90;91.80
9179;DHT22;71287;48.414;11.478;2023-10-09T09:04:36;20.80;91.90
9179;DHT22;71287;48.414;11.478;2023-10-09T09:07:03;20.90;92.10
9179;DHT22;71287;48.414;11.478;2023-10-09T09:09:30;20.90;91.80
9179;DHT22;71287;48.414;11.478;2023-10-09T09:11:59;20.90;91.70
9179;DHT22;71287;48.414;11.478;2023-10-09T09:14:36;20.90;91.70
9179;DHT22;71287;48.414;11.478;2023-10-09T09:17:04;20.90;91.50
9179;DHT22;71287;48.414;11.478;2023-10-09T09:19:34;20.90;91.80
9179;DHT22;71287;48.414;11.478;2023-10-09T09:22:04;20.90;91.80
9179;DHT22;71287;48.414;11.478;2023-10-09T09:24:39;21.00;91.70
9179;DHT22;71287;48.414;11.478;2023-10-09T09:27:11;21.00;91.60
9179;DHT22;71287;48.414;11.478;2023-10-09T09:29:46;21.00;91.70
9179;DHT22;71287;48.414;11.478;2023-10-09T09:32:26;21.00;91.90
9179;DHT22;71287;48.414;11.478;2023-10-09T09:34:56;21.00;91.90
9179;DHT22;71287;48.414;11.478;2023-10-09T09:37:27;21.10;92.10
9179;DHT22;71287;48.414;11.478;2023-10-09T09:39:57;21.10;91.90
9179;DHT22;71287;48.414;11.478;2023-10-09T09:42:27;21.10;91.70
9179;DHT22;71287;48.414;11.478;2023-10-09T09:44:59;21.20;91.70
9179;DHT22;71287;48.414;11.478;2023-10-09T09:47:26;21.20;91.70
9179;DHT22;71287;48.414;11.478;2023-10-09T09:49:55;21.20;91.70
9179;DHT22;71287;48.414;11.478;2023-10-09T09:52:29;21.20;91.80
9179;DHT22;71287;48.414;11.478;2023-10-09T09:55:04;21.20;92.00
9179;DHT22;71287;48.414;11.478;2023-10-09T09:57:33;21.20;92.40
9179;DHT22;71287;48.414;11.478;2023-10-09T10:00:09;21.20;92.60
9179;DHT22;71287;48.414;11.478;2023-10-09T10:02:58;21.20;92.60
9179;DHT22;71287;48.414;11.478;2023-10-09T10:05:28;21.20;92.60
9179;DHT22;71287;48.414;11.478;2023-10-09T10:07:57;21.30;92.40
9179;DHT22;71287;48.414;11.478;2023-10-09T10:10:34;21.40;92.20
9179;DHT22;71287;48.414;11.478;2023-10-09T10:13:03;21.50;91.90
9179;DHT22;71287;48.414;11.478;2023-10-09T10:16:00;21.50;91.90
9179;DHT22;71287;48.414;11.478;2023-10-09T10:18:53;21.70;91.70
9179;DHT22;71287;48.414;11.478;2023-10-09T10:21:25;21.90;91.30
9179;DHT22;71287;48.414;11.478;2023-10-09T10:24:40;22.00;91.10
9179;DHT22;71287;48.414;11.478;2023-10-09T10:27:21;22.10;91.10
9179;DHT22;71287;48.414;11.478;2023-10-09T10:32:56;22.20;91.10
9179;DHT22;71287;48.414;11.478;2023-10-09T10:35:24;22.20;90.50
9179;DHT22;71287;48.414;11.478;2023-10-09T10:38:22;22.20;90.30
9179;DHT22;71287;48.414;11.478;2023-10-09T10:40:49;22.20;90.60
9179;DHT22;71287;48.414;11.478;2023-10-09T10:43:23;22.30;90.70
9179;DHT22;71287;48.414;11.478;2023-10-09T10:46:01;22.30;90.20
9179;DHT22;71287;48.414;11.478;2023-10-09T10:48:35;22.30;89.70
9179;DHT22;71287;48.414;11.478;2023-10-09T10:51:04;22.20;90.00
9179;DHT22;71287;48.414;11.478;2023-10-09T10:53:31;22.10;90.10
9179;DHT22;71287;48.414;11.478;2023-10-09T10:56:13;22.10;90.00
9179;DHT22;71287;48.414;11.478;2023-10-09T10:58:52;22.10;90.00
9179;DHT22;71287;48.414;11.478;2023-10-09T11:01:37;22.20;90.00
9179;DHT22;71287;48.414;11.478;2023-10-09T11:04:21;22.40;89.90
9179;DHT22;71287;48.414;11.478;2023-10-09T11:06:53;22.50;89.50
9179;DHT22;71287;48.414;11.478;2023-10-09T11:09:26;22.60;89.10
9179;DHT22;71287;48.414;11.478;2023-10-09T11:12:04;22.70;89.40
9179;DHT22;71287;48.414;11.478;2023-10-09T11:14:47;22.70;89.40
9179;DHT22;71287;48.414;11.478;2023-10-09T11:17:31;22.80;88.50
9179;DHT22;71287;48.414;11.478;2023-10-09T11:20:03;22.80;87.80
9179;DHT22;71287;48.414;11.478;2023-10-09T11:22:49;22.80;87.70
9179;DHT22;71287;48.414;11.478;2023-10-09T11:25:32;22.70;88.30
9179;DHT22;71287;48.414;11.478;2023-10-09T11:27:59;22.70;87.90
9179;DHT22;71287;48.414;11.478;2023-10-09T11:30:41;22.80;87.70
9179;DHT22;71287;48.414;11.478;2023-10-09T11:33:11;22.80;86.90
9179;DHT22;71287;48.414;11.478;2023-10-09T11:35:41;22.80;87.20
9179;DHT22;71287;48.414;11.478;2023-10-09T11:38:09;22.80;86.80
9179;DHT22;71287;48.414;11.478;2023-10-09T11:40:46;22.90;86.70
9179;DHT22;71287;48.414;11.478;2023-10-09T11:43:45;23.00;86.50
9179;DHT22;71287;48.414;11.478;2023-10-09T11:46:16;23.00;86.50
9179;DHT22;71287;48.414;11.478;2023-10-09T11:49:04;23.00;85.50
9179;DHT22;71287;48.414;11.478;2023-10-09T11:51:52;23.00;84.80
9179;DHT22;71287;48.414;11.478;2023-10-09T11:54:36;23.00;84.50
9179;DHT22;71287;48.414;11.478;2023-10-09T11:57:03;23.00;84.70
9179;DHT22;71287;48.414;11.478;2023-10-09T11:59:31;23.00;84.10
9179;DHT22;71287;48.414;11.478;2023-10-09T12:02:03;22.90;83.80
9179;DHT22;71287;48.414;11.478;2023-10-09T12:04:30;22.90;84.60
9179;DHT22;71287;48.414;11.478;2023-10-09T12:06:58;22.80;84.20
9179;DHT22;71287;48.414;11.478;2023-10-09T12:09:33;22.70;83.50
9179;DHT22;71287;48.414;11.478;2023-10-09T12:12:00;22.60;83.40
9179;DHT22;71287;48.414;11.478;2023-10-09T12:14:28;22.50;83.30
9179;DHT22;71287;48.414;11.478;2023-10-09T12:16:59;22.40;83.20
9179;DHT22;71287;48.414;11.478;2023-10-09T12:19:31;22.30;83.10
9179;DHT22;71287;48.414;11.478;2023-10-09T12:22:00;22.20;83.00
9179;DHT22;71287;48.414;11.478;2023-10-09T12:24:27;22.10;83.50
9179;DHT22;71287;48.414;11.478;2023-10-09T12:26:55;22.10;84.20
9179;DHT22;71287;48.414;11.478;2023-10-09T12:29:23;22.00;84.30
9179;DHT22;71287;48.414;11.478;2023-10-09T12:31:50;21.90;84.70
9179;DHT22;71287;48.414;11.478;2023-10-09T12:34:23;21.80;85.10
9179;DHT22;71287;48.414;11.478;2023-10-09T12:36:52;21.80;85.50
9179;DHT22;71287;48.414;11.478;2023-10-09T12:39:21;21.70;85.60
9179;DHT22;71287;48.414;11.478;2023-10-09T12:41:48;21.70;85.90
9179;DHT22;71287;48.414;11.478;2023-10-09T12:44:19;21.60;86.00
9179;DHT22;71287;48.414;11.478;2023-10-09T12:46:45;21.50;86.10
9179;DHT22;71287;48.414;11.478;2023-10-09T12:49:18;21.50;86.80
9179;DHT22;71287;48.414;11.478;2023-10-09T12:51:45;21.40;86.80
9179;DHT22;71287;48.414;11.478;2023-10-09T12:54:12;21.30;87.00
9179;DHT22;71287;48.414;11.478;2023-10-09T12:56:41;21.20;87.80
9179;DHT22;71287;48.414;11.478;2023-10-09T12:59:08;21.10;88.80
9179;DHT22;71287;48.414;11.478;2023-10-09T13:01:40;21.10;89.50
9179;DHT22;71287;48.414;11.478;2023-10-09T13:04:10;21.10;90.10
9179;DHT22;71287;48.414;11.478;2023-10-09T13:06:39;21.10;90.40
9179;DHT22;71287;48.414;11.478;2023-10-09T13:09:09;21.00;90.40
9179;DHT22;71287;48.414;11.478;2023-10-09T13:11:36;21.00;90.30
9179;DHT22;71287;48.414;11.478;2023-10-09T13:14:06;21.00;90.70
9179;DHT22;71287;48.414;11.478;2023-10-09T13:16:37;21.00;90.70
9179;DHT22;71287;48.414;11.478;2023-10-09T13:19:04;21.00;90.90
9179;DHT22;71287;48.414;11.478;2023-10-09T13:21:35;20.90;91.00
9179;DHT22;71287;48.414;11.478;2023-10-09T13:24:05;20.80;91.40
9179;DHT22;71287;48.414;11.478;2023-10-09T13:26:38;20.70;92.40
9179;DHT22;71287;48.414;11.478;2023-10-09T13:29:07;20.60;92.40
9179;DHT22;71287;48.414;11.478;2023-10-09T13:31:35;20.60;93.10
9179;DHT22;71287;48.414;11.478;2023-10-09T13:34:04;20.60;93.80
9179;DHT22;71287;48.414;11.478;2023-10-09T13:36:35;20.50;94.20
9179;DHT22;71287;48.414;11.478;2023-10-09T13:39:04;20.50;94.30
9179;DHT22;71287;48.414;11.478;2023-10-09T13:41:59;20.40;94.50
9179;DHT22;71287;48.414;11.478;2023-10-09T13:44:29;20.30;94.90
9179;DHT22;71287;48.414;11.478;2023-10-09T13:46:56;20.20;95.60
9179;DHT22;71287;48.414;11.478;2023-10-09T13:49:23;20.20;95.90
9179;DHT22;71287;48.414;11.478;2023-10-09T13:51:55;20.20;96.20
9179;DHT22;71287;48.414;11.478;2023-10-09T13:54:22;20.20;96.20
9179;DHT22;71287;48.414;11.478;2023-10-09T13:56:54;20.20;95.90
9179;DHT22;71287;48.414;11.478;2023-10-09T13:59:23;20.20;96.40
9179;DHT22;71287;48.414;11.478;2023-10-09T14:01:51;20.20;96.80
9179;DHT22;71287;48.414;11.478;2023-10-09T14:04:20;20.20;97.20
9179;DHT22;71287;48.414;11.478;2023-10-09T14:06:48;20.20;97.40
9179;DHT22;71287;48.414;11.478;2023-10-09T14:09:22;20.30;97.80
9179;DHT22;71287;48.414;11.478;2023-10-09T14:11:57;20.30;98.10
9179;DHT22;71287;48.414;11.478;2023-10-09T14:14:34;20.30;98.20
9179;DHT22;71287;48.414;11.478;2023-10-09T14:17:04;20.40;98.20
9179;DHT22;71287;48.414;11.478;2023-10-09T14:19:37;20.40;98.10
9179;DHT22;71287;48.414;11.478;2023-10-09T14:22:04;20.50;98.60
9179;DHT22;71287;48.414;11.478;2023-10-09T14:24:31;20.40;98.70
9179;DHT22;71287;48.414;11.478;2023-10-09T14:27:00;20.40;98.60
9179;DHT22;71287;48.414;11.478;2023-10-09T14:29:29;20.40;98.70
9179;DHT22;71287;48.414;11.478;2023-10-09T14:31:58;20.40;98.70
9179;DHT22;71287;48.414;11.478;2023-10-09T14:34:28;20.40;98.90
9179;DHT22;71287;48.414;11.478;2023-10-09T14:36:58;20.30;99.20
9179;DHT22;71287;48.414;11.478;2023-10-09T14:39:26;20.30;99.40
9179;DHT22;71287;48.414;11.478;2023-10-09T14:41:53;20.30;99.50
9179;DHT22;71287;48.414;11.478;2023-10-09T14:44:23;20.30;99.50
9179;DHT22;71287;48.414;11.478;2023-10-09T14:46:50;20.30;99.70
9179;DHT22;71287;48.414;11.478;2023-10-09T14:49:18;20.30;99.70
9179;DHT22;71287;48.414;11.478;2023-10-09T14:51:47;20.30;99.50
9179;DHT22;71287;48.414;11.478;2023-10-09T14:54:14;20.20;99.40
9179;DHT22;71287;48.414;11.478;2023-10-09T14:56:43;20.20;99.30
9179;DHT22;71287;48.414;11.478;2023-10-09T14:59:11;20.20;99.20
9179;DHT22;71287;48.414;11.478;2023-10-09T15:01:38;20.20;99.20
9179;DHT22;71287;48.414;11.478;2023-10-09T15:04:05;20.20;99.10
9179;DHT22;71287;48.414;11.478;2023-10-09T15:06:34;20.20;99.30
9179;DHT22;71287;48.414;11.478;2023-10-09T15:09:03;20.10;99.30
9179;DHT22;71287;48.414;11.478;2023-10-09T15:11:35;20.10;99.30
9179;DHT22;71287;48.414;11.478;2023-10-09T15:14:04;20.10;99.30
9179;DHT22;71287;48.414;11.478;2023-10-09T15:16:32;20.10;99.60
9179;DHT22;71287;48.414;11.478;2023-10-09T15:18:59;20.00;99.50
9179;DHT22;71287;48.414;11.478;2023-10-09T15:21:28;20.00;99.40
9179;DHT22;71287;48.414;11.478;2023-10-09T15:23:59;19.90;99.50
9179;DHT22;71287;48.414;11.478;2023-10-09T15:26:26;19.90;99.80
9179;DHT22;71287;48.414;11.478;2023-10-09T15:29:00;19.80;99.70
9179;DHT22;71287;48.414;11.478;2023-10-09T15:31:29;19.80;99.60
9179;DHT22;71287;48.414;11.478;2023-10-09T15:33:58;19.70;99.60
9179;DHT22;71287;48.414;11.478;2023-10-09T15:36:24;19.70;99.60
9179;DHT22;71287;48.414;11.478;2023-10-09T15:38:54;19.70;99.70
9179;DHT22;71287;48.414;11.478;2023-10-09T15:41:27;19.70;99.60
9179;DHT22;71287;48.414;11.478;2023-10-09T15:43:56;19.70;99.70
9179;DHT22;71287;48.414;11.478;2023-10-09T15:46:24;19.60;99.60
9179;DHT22;71287;48.414;11.478;2023-10-09T15:48:51;19.60;99.60
9179;DHT22;71287;48.414;11.478;2023-10-09T15:51:20;19.60;99.60
9179;DHT22;71287;48.414;11.478;2023-10-09T15:53:47;19.50;99.70
9179;DHT22;71287;48.414;11.478;2023-10-09T15:56:16;19.50;99.80
9179;DHT22;71287;48.414;11.478;2023-10-09T15:58:44;19.50;99.90
9179;DHT22;71287;48.414;11.478;2023-10-09T16:01:12;19.40;99.90
9179;DHT22;71287;48.414;11.478;2023-10-09T16:03:40;19.40;99.90
9179;DHT22;71287;48.414;11.478;2023-10-09T16:06:08;19.30;99.90
9179;DHT22;71287;48.414;11.478;2023-10-09T16:08:38;19.30;99.90
9179;DHT22;71287;48.414;11.478;2023-10-09T16:11:05;19.20;99.90
9179;DHT22;71287;48.414;11.478;2023-10-09T16:13:33;19.20;99.90